Time;durP1;ratioP1;P1;durP2;ratioP2;P2;SDS_P1;SDS_P2;PMS_P1;PMS_P2;Temp;Humidity;BMP_temperature;BMP_pressure;BME280_temperature;BME280_humidity;BME280_pressure;Samples;Min_cycle;Max_cycle;Signal;HPM_P1;HPM_P2
2023/10/07 00:01:37;;;;;;;11.27;4.15;;;15.30;99.90;;;;;;5066350;28;20193;-78
2023/10/07 00:04:09;;;;;;;6.90;4.45;;;15.30;99.90;;;;;;5058161;28;20221;-80
2023/10/07 00:06:38;;;;;;;9.00;4.05;;;15.30;99.90;;;;;;5057503;28;20197;-77
2023/10/07 00:09:10;;;;;;;9.50;4.68;;;15.30;99.90;;;;;;5062640;28;20228;-78
2023/10/07 00:11:37;;;;;;;7.15;4.35;;;15.20;99.90;;;;;;5065333;28;20651;-78
2023/10/07 00:14:09;;;;;;;7.88;4.10;;;15.20;99.90;;;;;;5062604;28;20225;-78
2023/10/07 00:16:38;;;;;;;7.32;4.47;;;15.30;99.90;;;;;;5058188;28;20194;-78
2023/10/07 00:19:07;;;;;;;6.93;4.30;;;15.20;99.90;;;;;;5060745;28;20189;-78
2023/10/07 00:21:52;;;;;;;8.60;4.15;;;15.20;99.90;;;;;;5062856;28;20194;-78
2023/10/07 00:24:20;;;;;;;7.65;4.60;;;15.20;99.90;;;;;;5058730;28;20694;-78
2023/10/07 00:26:48;;;;;;;7.13;4.28;;;15.20;99.90;;;;;;5061851;28;20197;-78
2023/10/07 00:29:16;;;;;;;7.90;4.47;;;15.20;99.90;;;;;;5053500;28;20218;-78
2023/10/07 00:31:49;;;;;;;10.50;4.60;;;15.20;99.90;;;;;;5064675;28;20208;-77
2023/10/07 00:34:26;;;;;;;6.18;4.78;;;15.20;99.90;;;;;;5060429;28;20222;-79
2023/10/07 00:36:57;;;;;;;7.13;4.43;;;15.10;99.90;;;;;;5068226;28;20208;-78
2023/10/07 00:39:31;;;;;;;7.68;4.60;;;15.10;99.90;;;;;;5055350;28;20209;-78
2023/10/07 00:41:59;;;;;;;6.80;4.72;;;15.10;99.90;;;;;;5064597;28;20189;-78
2023/10/07 00:44:32;;;;;;;9.48;5.18;;;15.00;99.90;;;;;;5062463;28;20217;-78
2023/10/07 00:47:13;;;;;;;8.63;4.20;;;15.00;99.90;;;;;;5067207;28;20198;-78
2023/10/07 00:49:50;;;;;;;8.73;4.30;;;15.10;99.90;;;;;;5056164;28;20202;-78
2023/10/07 00:52:27;;;;;;;8.05;3.65;;;15.00;99.90;;;;;;5068558;28;20651;-78
2023/10/07 00:55:08;;;;;;;6.80;4.20;;;15.00;99.90;;;;;;5052979;28;20218;-78
2023/10/07 00:57:35;;;;;;;5.88;4.80;;;15.00;99.90;;;;;;5055654;28;20194;-77
2023/10/07 01:00:18;;;;;;;8.73;4.60;;;15.00;99.90;;;;;;5054424;28;20205;-78
2023/10/07 01:02:51;;;;;;;6.93;4.00;;;15.00;99.90;;;;;;5068868;28;20198;-78
2023/10/07 01:05:27;;;;;;;9.63;4.30;;;14.90;99.90;;;;;;5057543;28;20209;-78
2023/10/07 01:07:55;;;;;;;7.75;4.57;;;14.90;99.90;;;;;;5066076;28;20246;-78
2023/10/07 01:10:26;;;;;;;7.95;4.43;;;15.00;99.90;;;;;;5062034;28;20199;-78
2023/10/07 01:12:56;;;;;;;7.18;4.40;;;15.00;99.90;;;;;;5060134;28;20208;-78
2023/10/07 01:15:23;;;;;;;10.30;4.32;;;15.00;99.90;;;;;;5066381;28;20202;-78
2023/10/07 01:17:56;;;;;;;5.53;3.83;;;15.00;99.90;;;;;;5067264;28;20656;-78
2023/10/07 01:20:34;;;;;;;7.38;4.35;;;14.90;99.90;;;;;;5067836;28;20197;-78
2023/10/07 01:23:06;;;;;;;6.38;4.65;;;14.90;99.90;;;;;;5065943;28;20205;-77
2023/10/07 01:25:37;;;;;;;8.77;4.78;;;14.90;99.90;;;;;;5061809;28;20206;-79
2023/10/07 01:28:08;;;;;;;7.28;4.50;;;14.80;99.90;;;;;;5061993;28;20206;-80
2023/10/07 01:30:35;;;;;;;7.40;4.93;;;14.80;99.90;;;;;;5067147;28;20206;-78
2023/10/07 01:33:09;;;;;;;6.18;4.40;;;14.80;99.90;;;;;;5062082;28;20711;-78
2023/10/07 01:36:00;;;;;;;8.90;4.40;;;14.80;99.90;;;;;;5061720;28;20575;-78
2023/10/07 01:38:31;;;;;;;8.57;4.80;;;14.90;99.90;;;;;;5065204;28;20193;-78
2023/10/07 01:41:07;;;;;;;6.22;4.15;;;14.80;99.90;;;;;;5059674;28;20206;-78
2023/10/07 01:43:48;;;;;;;8.57;4.30;;;14.80;99.90;;;;;;5061942;28;20594;-78
2023/10/07 01:46:19;;;;;;;8.98;4.88;;;14.70;99.90;;;;;;5055808;28;20838;-77
2023/10/07 01:48:49;;;;;;;7.60;4.25;;;14.70;99.90;;;;;;5069913;28;20217;-78
2023/10/07 01:51:18;;;;;;;6.80;4.38;;;14.80;99.90;;;;;;5068175;28;20197;-78
2023/10/07 01:57:35;;;;;;;6.90;3.95;;;14.80;99.90;;;;;;5069702;28;20174;-78
2023/10/07 02:00:07;;;;;;;10.35;4.60;;;14.80;99.90;;;;;;5059894;28;20206;-79
2023/10/07 02:02:48;;;;;;;9.82;4.50;;;14.80;99.90;;;;;;5066767;28;20200;-78
2023/10/07 02:05:24;;;;;;;9.80;4.47;;;14.80;99.90;;;;;;5064360;28;20202;-78
2023/10/07 02:07:53;;;;;;;8.73;4.25;;;14.80;99.90;;;;;;5061957;28;20204;-78
2023/10/07 02:10:26;;;;;;;9.55;4.80;;;14.80;99.90;;;;;;5057804;28;20205;-80
2023/10/07 02:12:54;;;;;;;9.73;4.97;;;14.80;99.90;;;;;;5055594;28;20229;-79
2023/10/07 02:15:22;;;;;;;8.43;5.28;;;14.80;99.90;;;;;;5063289;28;20198;-78
2023/10/07 02:17:56;;;;;;;9.18;5.28;;;14.90;99.90;;;;;;5063800;28;20194;-78
2023/10/07 02:20:38;;;;;;;7.88;5.57;;;14.90;99.90;;;;;;5066725;28;20198;-78
2023/10/07 02:23:12;;;;;;;14.35;5.40;;;14.80;99.90;;;;;;5056933;28;20599;-79
2023/10/07 02:25:40;;;;;;;6.80;4.50;;;14.80;99.90;;;;;;5066225;28;20202;-80
2023/10/07 02:28:09;;;;;;;13.90;5.65;;;14.80;99.90;;;;;;5065982;28;20202;-78
2023/10/07 02:30:49;;;;;;;9.50;5.70;;;14.80;99.90;;;;;;5063562;28;20198;-78
2023/10/07 02:33:20;;;;;;;7.97;5.20;;;14.80;99.90;;;;;;5066389;28;20232;-78
2023/10/07 02:35:54;;;;;;;8.63;5.72;;;14.70;99.90;;;;;;5058158;28;20672;-78
2023/10/07 02:38:29;;;;;;;9.50;5.90;;;14.70;99.90;;;;;;5061511;28;20200;-79
2023/10/07 02:41:06;;;;;;;13.20;6.47;;;14.70;99.90;;;;;;5064717;28;20209;-78
2023/10/07 02:43:38;;;;;;;10.52;5.80;;;14.70;99.90;;;;;;5063679;28;20213;-78
2023/10/07 02:46:06;;;;;;;11.35;6.28;;;14.70;99.90;;;;;;5060450;28;20202;-80
2023/10/07 02:48:38;;;;;;;8.45;5.57;;;14.70;99.90;;;;;;5064180;28;20222;-78
2023/10/07 02:51:10;;;;;;;13.25;6.22;;;14.70;99.90;;;;;;5063920;28;20220;-80
2023/10/07 02:53:38;;;;;;;15.30;6.45;;;14.70;99.90;;;;;;5056143;28;20222;-80
2023/10/07 02:56:17;;;;;;;11.27;7.03;;;14.80;99.90;;;;;;5060596;28;20202;-78
2023/10/07 02:58:59;;;;;;;10.57;6.72;;;14.80;99.90;;;;;;5070109;28;20555;-78
2023/10/07 03:01:28;;;;;;;9.55;6.47;;;14.80;99.90;;;;;;5064703;28;20561;-78
2023/10/07 03:04:00;;;;;;;9.00;6.30;;;14.70;99.90;;;;;;5061319;28;20595;-78
2023/10/07 03:06:28;;;;;;;10.13;7.03;;;14.70;99.90;;;;;;5058782;28;20212;-78
2023/10/07 03:09:09;;;;;;;9.57;7.18;;;14.70;99.90;;;;;;5055656;28;20214;-78
2023/10/07 03:11:48;;;;;;;12.45;6.95;;;14.80;99.90;;;;;;5054584;28;20205;-78
2023/10/07 03:14:25;;;;;;;10.73;6.47;;;14.80;99.90;;;;;;5063834;28;20229;-78
2023/10/07 03:16:59;;;;;;;10.07;7.25;;;14.80;99.90;;;;;;5064831;28;20212;-79
2023/10/07 03:19:45;;;;;;;10.05;6.97;;;14.90;99.90;;;;;;5074346;28;20197;-77
2023/10/07 03:22:15;;;;;;;9.85;7.05;;;14.80;99.90;;;;;;5063940;28;20185;-78
2023/10/07 03:24:48;;;;;;;11.07;7.18;;;14.80;99.90;;;;;;5052266;28;20229;-79
2023/10/07 03:27:22;;;;;;;14.45;8.00;;;14.80;99.90;;;;;;5063516;28;20197;-78
2023/10/07 03:30:07;;;;;;;15.23;8.73;;;14.80;99.90;;;;;;5063332;28;20212;-78
2023/10/07 03:32:54;;;;;;;12.48;8.30;;;14.80;99.90;;;;;;5057662;28;20198;-78
2023/10/07 03:35:35;;;;;;;13.10;8.13;;;14.80;99.90;;;;;;5062189;28;20202;-78
2023/10/07 03:38:08;;;;;;;11.35;8.27;;;14.80;99.90;;;;;;5064092;28;20201;-78
2023/10/07 03:40:38;;;;;;;13.32;8.80;;;14.90;99.90;;;;;;5068554;28;20557;-78
2023/10/07 03:43:08;;;;;;;14.13;10.00;;;14.80;99.90;;;;;;5061443;28;20218;-79
2023/10/07 03:45:40;;;;;;;12.70;8.95;;;14.80;99.90;;;;;;5051952;28;20206;-78
2023/10/07 03:48:23;;;;;;;12.77;8.93;;;14.90;99.90;;;;;;5057734;28;20205;-78
2023/10/07 03:50:59;;;;;;;12.00;9.32;;;15.00;99.90;;;;;;5062752;28;20218;-79
2023/10/07 03:53:31;;;;;;;16.42;10.68;;;14.90;99.90;;;;;;5058746;28;20226;-78
2023/10/07 03:56:02;;;;;;;15.18;9.82;;;14.90;99.90;;;;;;5057289;28;20206;-80
2023/10/07 03:58:32;;;;;;;18.00;11.10;;;14.80;99.90;;;;;;5067841;28;20198;-80
2023/10/07 04:01:11;;;;;;;16.67;10.52;;;14.90;99.90;;;;;;5072692;28;20682;-81
2023/10/07 04:03:40;;;;;;;19.10;11.27;;;14.90;99.90;;;;;;5060673;28;20213;-80
2023/10/07 04:06:09;;;;;;;14.55;11.20;;;14.90;99.90;;;;;;5065235;28;20213;-82
2023/10/07 04:08:39;;;;;;;15.20;11.57;;;14.90;99.90;;;;;;5065315;28;20193;-80
2023/10/07 04:11:16;;;;;;;14.82;10.75;;;14.90;99.90;;;;;;5078316;28;20537;-80
2023/10/07 04:13:44;;;;;;;15.30;10.73;;;14.90;99.90;;;;;;5080725;28;20224;-80
2023/10/07 04:16:27;;;;;;;19.05;12.10;;;15.00;99.90;;;;;;5075912;28;20209;-80
2023/10/07 04:19:06;;;;;;;14.05;11.05;;;15.00;99.90;;;;;;5064598;28;20198;-80
2023/10/07 04:21:39;;;;;;;16.65;10.80;;;15.00;99.90;;;;;;5079616;28;20204;-80
2023/10/07 04:24:09;;;;;;;17.30;11.45;;;15.00;99.90;;;;;;5066452;28;20500;-81
2023/10/07 04:26:39;;;;;;;16.95;11.45;;;15.00;99.90;;;;;;5060251;28;20222;-83
2023/10/07 04:29:08;;;;;;;17.00;11.00;;;15.00;99.90;;;;;;5071302;28;20190;-79
2023/10/07 04:31:37;;;;;;;18.17;11.57;;;15.10;99.90;;;;;;5059964;23;20220;-77
2023/10/07 04:34:11;;;;;;;20.10;11.80;;;15.10;99.90;;;;;;5003106;28;20211;-77
2023/10/07 04:37:08;;;;;;;16.48;11.60;;;15.00;99.90;;;;;;5009441;28;20203;-77
2023/10/07 04:39:28;;;;;;;19.45;12.13;;;15.10;99.90;;;;;;5023048;28;20208;-77
2023/10/07 04:41:58;;;;;;;17.83;12.55;;;15.10;99.90;;;;;;5020724;28;20562;-77
2023/10/07 04:45:15;;;;;;;16.98;12.88;;;15.10;99.90;;;;;;5019681;28;20673;-77
2023/10/07 04:47:34;;;;;;;19.55;13.75;;;15.10;99.90;;;;;;5008277;28;20204;-77
2023/10/07 04:50:07;;;;;;;20.38;14.02;;;15.10;99.90;;;;;;5008121;28;20212;-77
2023/10/07 04:52:39;;;;;;;20.33;13.82;;;15.10;99.90;;;;;;5003818;28;20219;-77
2023/10/07 04:55:11;;;;;;;17.77;13.75;;;15.10;99.90;;;;;;5021079;28;20187;-77
2023/10/07 04:57:44;;;;;;;21.92;14.32;;;15.10;99.90;;;;;;5010197;28;20208;-77
2023/10/07 05:00:30;;;;;;;21.30;14.10;;;15.10;99.90;;;;;;5020540;28;20199;-77
2023/10/07 05:03:00;;;;;;;21.45;14.23;;;15.10;99.90;;;;;;5008759;28;20203;-77
2023/10/07 05:05:29;;;;;;;20.70;13.93;;;15.10;99.90;;;;;;5027717;28;20193;-77
2023/10/07 05:07:58;;;;;;;19.63;13.70;;;15.10;99.90;;;;;;5011164;28;20557;-77
2023/10/07 05:10:29;;;;;;;20.00;14.23;;;15.10;99.90;;;;;;5006226;28;20234;-77
2023/10/07 05:12:55;;;;;;;20.27;14.15;;;15.10;99.90;;;;;;5007226;28;20207;-77
2023/10/07 05:15:25;;;;;;;17.75;14.02;;;15.10;99.90;;;;;;5025366;28;20204;-77
2023/10/07 05:17:52;;;;;;;28.85;15.05;;;15.10;99.90;;;;;;5005008;28;20551;-77
2023/10/07 05:20:28;;;;;;;18.20;13.80;;;15.20;99.90;;;;;;5009436;28;20191;-77
2023/10/07 05:22:56;;;;;;;20.73;13.48;;;15.10;99.90;;;;;;5003050;28;20226;-77
2023/10/07 05:25:23;;;;;;;18.25;12.98;;;15.10;99.90;;;;;;5012063;28;20195;-77
2023/10/07 05:27:51;;;;;;;19.70;13.85;;;15.10;99.90;;;;;;5012363;28;20208;-77
2023/10/07 05:30:19;;;;;;;20.23;13.85;;;15.10;99.90;;;;;;4997579;28;20208;-77
2023/10/07 05:32:47;;;;;;;21.40;13.40;;;15.10;99.90;;;;;;5013649;28;20224;-77
2023/10/07 05:35:15;;;;;;;17.10;13.07;;;15.10;99.90;;;;;;5004819;28;20200;-77
2023/10/07 05:37:44;;;;;;;16.45;13.05;;;15.10;99.90;;;;;;5009927;28;20200;-77
2023/10/07 05:40:16;;;;;;;20.40;13.10;;;15.10;99.90;;;;;;5009176;28;20196;-77
2023/10/07 05:42:45;;;;;;;20.50;13.80;;;15.10;99.90;;;;;;5008035;28;20238;-77
2023/10/07 05:45:17;;;;;;;18.95;12.93;;;15.10;99.90;;;;;;5024154;28;20192;-77
2023/10/07 05:48:15;;;;;;;18.70;12.60;;;15.10;99.90;;;;;;5004765;28;20201;-76
2023/10/07 05:50:42;;;;;;;22.20;13.32;;;15.10;99.90;;;;;;5007178;28;20204;-76
2023/10/07 05:53:22;;;;;;;18.30;12.38;;;15.20;99.90;;;;;;5011472;28;20188;-77
2023/10/07 05:55:53;;;;;;;18.63;12.57;;;15.10;99.90;;;;;;5011169;28;20665;-77
2023/10/07 05:58:24;;;;;;;18.70;13.35;;;15.20;99.90;;;;;;5001381;28;20192;-77
2023/10/07 06:01:18;;;;;;;21.50;14.45;;;15.20;99.90;;;;;;5012201;28;20709;-77
2023/10/07 06:03:46;;;;;;;18.42;12.68;;;15.10;99.90;;;;;;5003973;28;20214;-77
2023/10/07 06:06:14;;;;;;;17.85;12.15;;;15.20;99.90;;;;;;5011515;28;20207;-77
2023/10/07 06:08:52;;;;;;;15.02;12.68;;;15.20;99.90;;;;;;5003228;28;20678;-77
2023/10/07 06:11:23;;;;;;;20.52;12.55;;;15.20;99.90;;;;;;5013740;28;20235;-77
2023/10/07 06:13:51;;;;;;;19.58;14.30;;;15.20;99.90;;;;;;5019755;28;20204;-77
2023/10/07 06:16:19;;;;;;;17.58;14.02;;;15.20;99.90;;;;;;5010596;28;20642;-77
2023/10/07 06:18:49;;;;;;;22.50;13.25;;;15.20;99.90;;;;;;5003996;28;20564;-77
2023/10/07 06:21:19;;;;;;;15.40;11.68;;;15.20;99.90;;;;;;5003011;28;20690;-77
2023/10/07 06:23:48;;;;;;;19.52;12.13;;;15.20;99.90;;;;;;5004111;28;20427;-77
2023/10/07 06:26:24;;;;;;;23.20;13.25;;;15.30;99.90;;;;;;5019798;28;20228;-77
2023/10/07 06:28:51;;;;;;;17.65;11.85;;;15.30;99.90;;;;;;5005946;28;20727;-77
2023/10/07 06:31:31;;;;;;;15.45;11.98;;;15.30;99.90;;;;;;5025269;28;21309;-77
2023/10/07 06:34:03;;;;;;;18.10;12.20;;;15.30;99.90;;;;;;5011097;28;20191;-77
2023/10/07 06:36:31;;;;;;;17.65;12.60;;;15.30;99.90;;;;;;4998002;28;20211;-77
2023/10/07 06:39:01;;;;;;;19.85;11.98;;;15.30;99.90;;;;;;5010179;28;20207;-77
2023/10/07 06:41:30;;;;;;;14.98;11.10;;;15.30;99.90;;;;;;4992933;28;20216;-77
2023/10/07 06:44:02;;;;;;;16.60;11.23;;;15.30;99.90;;;;;;5021679;28;20207;-79
2023/10/07 06:46:40;;;;;;;18.83;11.88;;;15.30;99.90;;;;;;5012730;28;20201;-78
2023/10/07 06:49:16;;;;;;;15.85;12.05;;;15.30;99.90;;;;;;5029711;28;20198;-77
2023/10/07 06:51:44;;;;;;;16.52;11.13;;;15.30;99.90;;;;;;5021730;28;20230;-77
2023/10/07 06:54:16;;;;;;;13.52;10.95;;;15.40;99.90;;;;;;5007504;28;20552;-77
2023/10/07 06:56:45;;;;;;;19.80;14.43;;;15.40;99.90;;;;;;5019681;28;20204;-77
2023/10/07 06:59:15;;;;;;;15.73;11.55;;;15.40;99.90;;;;;;5006928;28;20280;-77
2023/10/07 07:01:53;;;;;;;17.42;13.05;;;15.40;99.90;;;;;;5005621;28;20572;-77
2023/10/07 07:04:22;;;;;;;16.63;12.93;;;15.40;99.90;;;;;;5006324;28;20199;-77
2023/10/07 07:06:58;;;;;;;16.15;12.23;;;15.50;99.90;;;;;;5003599;28;20563;-78
2023/10/07 07:12:16;;;;;;;18.27;12.38;;;15.50;99.90;;;;;;5010435;28;20230;-78
2023/10/07 07:14:50;;;;;;;18.08;11.75;;;15.60;99.90;;;;;;5008596;28;20211;-79
2023/10/07 07:17:35;;;;;;;15.52;12.57;;;15.60;99.90;;;;;;5003715;28;20208;-78
2023/10/07 07:20:29;;;;;;;16.83;11.57;;;15.60;99.90;;;;;;4997714;28;20223;-78
2023/10/07 07:22:58;;;;;;;15.07;10.93;;;15.60;99.90;;;;;;5004340;28;20220;-78
2023/10/07 07:25:36;;;;;;;22.10;11.60;;;15.60;99.90;;;;;;5001258;28;20594;-78
2023/10/07 07:28:06;;;;;;;15.15;9.60;;;15.60;99.90;;;;;;5004497;28;20223;-78
2023/10/07 07:30:43;;;;;;;12.25;10.10;;;15.60;99.90;;;;;;5014186;28;20224;-78
2023/10/07 07:33:12;;;;;;;15.15;10.10;;;15.60;99.90;;;;;;5001497;28;20211;-79
2023/10/07 07:35:40;;;;;;;13.60;9.77;;;15.60;99.90;;;;;;5010188;28;20570;-78
2023/10/07 07:38:22;;;;;;;12.80;9.95;;;15.70;99.90;;;;;;5007697;28;20203;-78
2023/10/07 07:40:50;;;;;;;15.43;9.48;;;15.70;99.90;;;;;;5000846;28;20565;-78
2023/10/07 07:43:20;;;;;;;13.48;8.52;;;15.70;99.90;;;;;;4998274;28;20215;-78
2023/10/07 07:45:56;;;;;;;13.00;8.85;;;15.70;99.90;;;;;;4992877;28;20204;-79
2023/10/07 07:48:25;;;;;;;15.02;8.50;;;15.80;99.90;;;;;;5008229;28;20203;-80
2023/10/07 07:50:54;;;;;;;14.45;8.63;;;15.80;99.90;;;;;;4997860;28;20235;-78
2023/10/07 07:53:22;;;;;;;11.65;8.13;;;15.70;99.90;;;;;;5000196;28;20204;-78
2023/10/07 07:55:55;;;;;;;12.07;7.88;;;15.80;99.90;;;;;;4995239;28;20201;-78
2023/10/07 07:58:24;;;;;;;13.40;8.15;;;15.90;99.90;;;;;;5006011;28;20650;-78
2023/10/07 08:00:58;;;;;;;12.02;8.13;;;15.90;99.90;;;;;;5004102;28;20203;-78
2023/10/07 08:03:26;;;;;;;11.27;7.18;;;16.00;99.90;;;;;;5008728;28;20195;-78
2023/10/07 08:05:54;;;;;;;9.73;7.43;;;16.00;99.90;;;;;;4995486;28;20206;-78
2023/10/07 08:08:24;;;;;;;9.45;6.63;;;16.10;99.90;;;;;;5002146;28;20199;-78
2023/10/07 08:10:54;;;;;;;9.80;7.22;;;16.10;99.90;;;;;;5011039;28;20215;-78
2023/10/07 08:13:27;;;;;;;12.52;8.65;;;16.10;99.90;;;;;;4999932;28;20204;-78
2023/10/07 08:15:55;;;;;;;11.27;7.45;;;16.10;99.90;;;;;;5008452;28;20214;-78
2023/10/07 08:18:28;;;;;;;12.48;7.28;;;16.20;99.90;;;;;;5002804;28;20596;-80
2023/10/07 08:21:06;;;;;;;12.75;7.50;;;16.20;99.90;;;;;;5011847;28;20227;-78
2023/10/07 08:23:36;;;;;;;11.60;7.22;;;16.20;99.90;;;;;;5022013;28;20214;-79
2023/10/07 08:26:10;;;;;;;12.23;7.97;;;16.20;99.90;;;;;;5011905;28;20210;-78
2023/10/07 08:28:44;;;;;;;12.00;7.85;;;16.30;99.90;;;;;;5007484;28;20211;-78
2023/10/07 08:31:17;;;;;;;10.23;6.97;;;16.40;99.90;;;;;;5014783;28;20218;-78
2023/10/07 08:33:53;;;;;;;12.20;7.30;;;16.50;99.90;;;;;;5011575;28;20199;-78
2023/10/07 08:36:27;;;;;;;12.30;7.30;;;16.50;99.90;;;;;;5005212;28;20231;-80
2023/10/07 08:38:58;;;;;;;9.52;6.40;;;16.50;99.90;;;;;;5014417;28;20199;-80
2023/10/07 08:41:28;;;;;;;10.25;5.88;;;16.50;99.90;;;;;;5017138;28;20211;-79
2023/10/07 08:44:12;;;;;;;10.00;6.43;;;16.60;99.90;;;;;;5025600;28;20200;-80
2023/10/07 08:46:40;;;;;;;10.15;6.10;;;16.50;99.90;;;;;;5015724;28;20205;-80
2023/10/07 08:49:13;;;;;;;9.25;6.18;;;16.50;99.90;;;;;;5011681;28;20218;-80
2023/10/07 08:51:42;;;;;;;8.55;5.80;;;16.50;99.90;;;;;;5007274;28;20227;-79
2023/10/07 08:54:26;;;;;;;9.05;6.75;;;16.60;99.90;;;;;;5016005;28;20607;-79
2023/10/07 08:56:57;;;;;;;13.55;6.38;;;16.60;99.90;;;;;;5014862;28;20191;-79
2023/10/07 08:59:30;;;;;;;12.65;6.43;;;16.60;99.90;;;;;;5016415;28;20211;-79
2023/10/07 09:02:00;;;;;;;10.85;6.47;;;16.60;99.90;;;;;;5017942;28;20219;-79
2023/10/07 09:04:31;;;;;;;9.55;6.00;;;16.70;99.90;;;;;;5011305;28;20196;-79
2023/10/07 09:06:59;;;;;;;11.02;5.90;;;16.70;99.90;;;;;;5016118;28;20208;-78
2023/10/07 09:09:53;;;;;;;11.00;6.38;;;16.70;99.90;;;;;;5015395;28;20218;-79
2023/10/07 09:12:36;;;;;;;10.02;6.22;;;16.70;99.90;;;;;;5013036;28;20612;-77
2023/10/07 09:15:12;;;;;;;8.63;5.60;;;16.70;99.90;;;;;;5016677;28;20204;-80
2023/10/07 09:17:41;;;;;;;8.68;5.78;;;16.70;99.90;;;;;;5016148;28;20192;-79
2023/10/07 09:20:13;;;;;;;9.20;5.95;;;16.70;99.90;;;;;;5014517;28;20207;-79
2023/10/07 09:22:53;;;;;;;8.88;5.70;;;16.90;99.90;;;;;;5018324;28;20224;-79
2023/10/07 09:25:31;;;;;;;9.88;5.10;;;17.00;99.90;;;;;;5030032;28;20207;-79
2023/10/07 09:27:59;;;;;;;7.78;5.55;;;17.10;99.90;;;;;;5026530;28;20200;-79
2023/10/07 09:30:44;;;;;;;7.38;5.53;;;17.20;99.90;;;;;;5005333;28;20210;-79
2023/10/07 09:33:14;;;;;;;8.07;4.72;;;17.30;99.90;;;;;;5021461;28;20227;-79
2023/10/07 09:35:45;;;;;;;9.35;5.60;;;17.40;99.90;;;;;;5011821;28;20208;-79
2023/10/07 09:38:28;;;;;;;7.60;5.03;;;17.40;99.90;;;;;;5013690;28;20192;-80
2023/10/07 09:41:12;;;;;;;8.07;5.15;;;17.50;99.90;;;;;;5030668;28;20220;-79
2023/10/07 09:43:47;;;;;;;6.60;4.82;;;17.50;99.90;;;;;;5021023;28;20214;-80
2023/10/07 09:46:25;;;;;;;8.30;5.15;;;17.60;99.90;;;;;;5016130;28;20195;-80
2023/10/07 09:48:53;;;;;;;8.02;5.28;;;17.60;99.90;;;;;;5031857;28;20201;-80
2023/10/07 09:51:28;;;;;;;8.00;4.88;;;17.80;99.90;;;;;;5013701;28;20220;-80
2023/10/07 09:54:22;;;;;;;6.90;4.70;;;17.80;99.90;;;;;;5013917;28;20206;-80
2023/10/07 09:57:19;;;;;;;5.85;4.28;;;18.00;99.90;;;;;;5009873;28;20212;-79
2023/10/07 10:00:37;;;;;;;7.00;3.97;;;18.20;99.90;;;;;;5021079;28;20200;-79
2023/10/07 10:03:20;;;;;;;7.65;4.35;;;18.20;99.90;;;;;;5007681;28;20216;-80
2023/10/07 10:06:07;;;;;;;9.43;4.78;;;18.30;99.90;;;;;;5005691;28;20200;-78
2023/10/07 10:08:56;;;;;;;6.63;3.70;;;18.40;99.90;;;;;;5018934;28;20657;-78
2023/10/07 10:11:31;;;;;;;5.53;3.63;;;18.70;99.90;;;;;;5026479;28;20223;-75
2023/10/07 10:14:16;;;;;;;4.68;3.70;;;18.80;99.90;;;;;;5026394;28;20199;-78
2023/10/07 10:16:44;;;;;;;6.30;3.80;;;19.00;99.90;;;;;;5030309;28;20211;-78
2023/10/07 10:19:25;;;;;;;7.72;3.85;;;18.90;99.90;;;;;;5012619;28;20199;-79
2023/10/07 10:21:52;;;;;;;6.45;4.25;;;18.80;99.90;;;;;;5017455;28;20227;-79
2023/10/07 10:24:24;;;;;;;5.18;3.10;;;18.60;99.90;;;;;;5020776;28;20188;-78
2023/10/07 10:26:51;;;;;;;5.82;3.78;;;18.80;99.90;;;;;;5004624;28;20195;-78
2023/10/07 10:29:36;;;;;;;6.55;3.90;;;18.90;99.90;;;;;;5005820;28;20189;-78
2023/10/07 10:32:16;;;;;;;5.28;3.47;;;19.10;99.90;;;;;;5006038;28;20235;-79
2023/10/07 10:34:46;;;;;;;6.03;4.03;;;19.30;99.90;;;;;;5008026;28;20203;-78
2023/10/07 10:37:14;;;;;;;7.53;3.97;;;19.50;99.90;;;;;;5006733;28;20196;-79
2023/10/07 10:39:41;;;;;;;6.25;3.35;;;19.40;99.90;;;;;;5012262;28;20211;-79
2023/10/07 10:42:13;;;;;;;6.38;3.15;;;19.60;99.90;;;;;;5004297;28;20219;-78
2023/10/07 10:44:46;;;;;;;4.90;3.42;;;19.70;99.90;;;;;;4992685;28;20227;-78
2023/10/07 10:47:33;;;;;;;4.38;3.00;;;19.70;99.90;;;;;;5010339;28;20192;-78
2023/10/07 10:50:06;;;;;;;6.88;3.40;;;20.00;99.90;;;;;;5019740;28;20201;-78
2023/10/07 10:52:34;;;;;;;5.70;3.25;;;20.00;99.90;;;;;;5003631;28;20207;-79
2023/10/07 10:55:02;;;;;;;5.65;3.03;;;20.00;99.90;;;;;;5005754;28;20551;-78
2023/10/07 10:57:30;;;;;;;10.48;3.42;;;20.00;99.90;;;;;;5009627;28;20225;-79
2023/10/07 10:59:58;;;;;;;7.20;3.03;;;20.10;99.90;;;;;;5007938;28;20200;-79
2023/10/07 11:02:51;;;;;;;4.75;2.58;;;20.00;99.90;;;;;;5000306;28;20713;-78
2023/10/07 11:05:34;;;;;;;3.70;2.85;;;20.20;99.90;;;;;;5011316;28;20202;-78
2023/10/07 11:08:04;;;;;;;5.45;3.20;;;20.20;99.90;;;;;;5006238;28;20207;-78
2023/10/07 11:13:58;;;;;;;7.18;3.40;;;20.50;99.90;;;;;;5008577;28;20219;-77
2023/10/07 11:16:26;;;;;;;5.25;3.08;;;20.50;99.90;;;;;;5018250;28;20196;-78
2023/10/07 11:18:56;;;;;;;4.53;3.17;;;20.40;99.90;;;;;;5008625;28;20215;-78
2023/10/07 11:21:24;;;;;;;4.45;3.00;;;20.50;99.90;;;;;;5003381;28;20230;-78
2023/10/07 11:24:14;;;;;;;6.55;3.17;;;20.60;99.90;;;;;;5002608;28;20200;-78
2023/10/07 11:27:08;;;;;;;4.57;2.83;;;20.90;99.90;;;;;;5003793;28;20199;-78
2023/10/07 11:29:38;;;;;;;4.07;2.58;;;20.80;99.90;;;;;;5007442;28;20199;-78
2023/10/07 11:32:07;;;;;;;4.60;2.65;;;20.70;99.90;;;;;;5004714;28;20876;-78
2023/10/07 11:34:39;;;;;;;5.57;2.92;;;20.70;99.90;;;;;;5016498;28;20223;-78
2023/10/07 11:37:13;;;;;;;5.68;2.95;;;20.70;99.90;;;;;;5004985;28;20581;-78
2023/10/07 11:39:44;;;;;;;8.50;3.08;;;20.50;99.90;;;;;;5010337;28;20202;-78
2023/10/07 11:42:14;;;;;;;5.57;3.03;;;20.50;99.90;;;;;;5008332;28;20223;-78
2023/10/07 11:44:42;;;;;;;6.22;3.85;;;20.70;99.90;;;;;;5011948;28;20200;-78
2023/10/07 11:47:12;;;;;;;8.00;3.22;;;20.90;99.90;;;;;;5000712;28;20204;-78
2023/10/07 11:49:39;;;;;;;4.30;2.40;;;20.90;99.90;;;;;;5022680;28;20202;-78
2023/10/07 11:52:07;;;;;;;3.78;2.60;;;20.80;99.90;;;;;;5004522;28;20235;-78
2023/10/07 11:54:37;;;;;;;6.38;3.28;;;20.50;99.90;;;;;;5039914;22;20690;-82
2023/10/07 11:57:06;;;;;;;5.05;3.15;;;20.50;99.90;;;;;;5061106;28;20200;-80
2023/10/07 11:59:35;;;;;;;6.28;3.13;;;20.50;99.90;;;;;;5081990;28;20204;-80
2023/10/07 12:02:09;;;;;;;7.47;2.70;;;20.50;99.90;;;;;;5067761;28;20212;-80
2023/10/07 12:04:39;;;;;;;5.18;2.90;;;20.50;99.90;;;;;;5060606;28;20203;-80
2023/10/07 12:07:08;;;;;;;5.03;2.95;;;20.40;99.90;;;;;;5039588;28;20194;-80
2023/10/07 12:09:37;;;;;;;7.07;3.13;;;20.50;99.90;;;;;;5052009;28;20194;-80
2023/10/07 12:12:06;;;;;;;5.22;2.85;;;20.60;99.90;;;;;;5038342;28;20548;-80
2023/10/07 12:14:34;;;;;;;6.60;3.10;;;20.90;99.90;;;;;;5044085;28;20213;-80
2023/10/07 12:17:01;;;;;;;4.10;2.38;;;21.00;99.90;;;;;;5045364;28;20201;-80
2023/10/07 12:19:30;;;;;;;5.07;2.30;;;21.00;99.90;;;;;;5052210;28;20209;-81
2023/10/07 12:21:59;;;;;;;8.38;3.38;;;20.90;99.90;;;;;;5046701;28;20198;-80
2023/10/07 12:24:26;;;;;;;5.78;3.30;;;20.90;99.90;;;;;;5058143;28;20559;-80
2023/10/07 12:26:56;;;;;;;5.90;2.72;;;21.00;99.90;;;;;;5057560;28;20732;-80
2023/10/07 12:29:24;;;;;;;5.70;3.22;;;20.80;99.90;;;;;;5050019;28;20546;-80
2023/10/07 12:31:52;;;;;;;5.75;2.75;;;21.00;99.90;;;;;;5047824;28;20205;-80
2023/10/07 12:34:20;;;;;;;4.43;2.60;;;21.00;99.90;;;;;;5044741;28;20714;-80
2023/10/07 12:36:52;;;;;;;4.85;2.63;;;21.30;99.90;;;;;;5043734;28;20217;-80
2023/10/07 12:39:21;;;;;;;6.32;3.20;;;21.70;99.90;;;;;;5048834;28;20194;-80
2023/10/07 12:41:49;;;;;;;7.25;3.58;;;21.60;99.90;;;;;;5046253;28;20212;-80
2023/10/07 12:44:21;;;;;;;5.88;3.13;;;21.90;99.90;;;;;;5041007;28;20191;-80
2023/10/07 12:46:48;;;;;;;4.55;3.10;;;21.90;99.90;;;;;;5042889;28;20218;-80
2023/10/07 12:49:16;;;;;;;5.82;3.20;;;21.90;99.90;;;;;;5046216;28;20198;-80
2023/10/07 12:51:44;;;;;;;7.07;3.63;;;22.00;99.90;;;;;;5043636;28;20201;-80
2023/10/07 12:54:17;;;;;;;5.07;2.97;;;22.30;99.90;;;;;;5048887;28;20217;-80
2023/10/07 12:56:45;;;;;;;4.57;2.60;;;22.30;99.90;;;;;;5067206;28;20229;-81
2023/10/07 12:59:21;;;;;;;6.95;3.30;;;22.40;99.90;;;;;;5049243;28;20553;-80
2023/10/07 13:01:55;;;;;;;4.70;3.45;;;22.40;99.90;;;;;;5066175;28;20197;-80
2023/10/07 13:04:29;;;;;;;6.85;3.47;;;22.40;99.90;;;;;;5043540;28;20187;-80
2023/10/07 13:07:00;;;;;;;8.07;3.53;;;22.20;99.90;;;;;;5043234;28;20194;-81
2023/10/07 13:09:30;;;;;;;6.68;3.05;;;22.40;99.90;;;;;;5048636;28;20202;-80
2023/10/07 13:12:05;;;;;;;6.97;3.72;;;22.50;99.90;;;;;;5062261;28;20186;-79
2023/10/07 13:14:40;;;;;;;5.88;3.20;;;22.40;99.90;;;;;;5044977;28;20217;-81
2023/10/07 13:17:13;;;;;;;6.72;3.88;;;22.90;99.90;;;;;;5049301;28;20197;-80
2023/10/07 13:19:43;;;;;;;5.70;3.53;;;23.00;99.90;;;;;;5049756;28;20565;-80